Terminal Aerodrome Forecast
Issued by NWS Raleigh/Durham, NC

Home | Current Version | Previous Version | Text Only | Print | Product List | Glossary On
Versions: 1 2 3 4 5 6 7 8 9 10 11 12 13 14 15 16 17 18 19 20
000
FTUS42 KRAH 280255 AAB
TAFFAY
TAF AMD
KFAY 280255Z 2803/2824 19007KT P6SM FEW050 SCT100 OVC250
      TEMPO 2803/2807 5SM -SHRA BKN035
     FM280700 21006KT P6SM SCT020
      TEMPO 2809/2813 BKN005
     FM281300 21007KT P6SM BKN012
     FM281600 21011KT P6SM SCT030=

USA.gov is the U.S. government's official web portal to all federal, state and local government web resources and services.